createdAt,value
2019-05-03T00:01:56.698Z,6.98
2019-05-03T00:04:28.689Z,7.05
2019-05-03T00:07:03.783Z,6.86
2019-05-03T00:09:36.316Z,6.91
2019-05-03T00:12:12.509Z,6.90
2019-05-03T00:14:45.339Z,6.89
2019-05-03T00:17:17.351Z,6.97
2019-05-03T00:19:48.433Z,7.13
2019-05-03T00:22:19.343Z,7.07
2019-05-03T00:25:04.632Z,7.09
2019-05-03T00:27:22.833Z,7.12
2019-05-03T00:29:53.583Z,7.10
2019-05-03T00:32:26.143Z,7.09
2019-05-03T00:34:58.863Z,7.08
2019-05-03T00:37:32.731Z,6.97
2019-05-03T00:40:06.851Z,6.88
2019-05-03T00:42:38.144Z,6.87
2019-05-03T00:45:12.596Z,6.78
2019-05-03T00:47:43.283Z,6.87
2019-05-03T00:50:14.843Z,6.87
2019-05-03T00:52:45.737Z,7.04
2019-05-03T00:55:19.259Z,7.04
2019-05-03T00:57:49.761Z,7.08
2019-05-03T01:00:21.761Z,6.97
2019-05-03T01:02:53.262Z,6.91
2019-05-03T01:05:24.497Z,6.84
2019-05-03T01:07:56.301Z,6.72
2019-05-03T01:10:27.276Z,6.66
2019-05-03T01:12:58.997Z,6.49
2019-05-03T01:15:46.456Z,6.24
2019-05-03T01:18:21.773Z,6.22
2019-05-03T01:20:53.243Z,6.13
2019-05-03T01:23:24.764Z,6.18
2019-05-03T01:25:56.223Z,6.18
2019-05-03T01:28:27.203Z,6.21
2019-05-03T01:30:59.103Z,6.17
2019-05-03T01:33:32.001Z,6.13
2019-05-03T01:36:02.866Z,6.10
2019-05-03T01:38:34.579Z,6.05
2019-05-03T01:41:05.309Z,6.07
2019-05-03T01:43:36.463Z,6.10
2019-05-03T01:46:07.028Z,6.16
2019-05-03T01:48:52.989Z,6.31
2019-05-03T01:51:43.257Z,6.32
2019-05-03T01:54:14.589Z,6.40
2019-05-03T01:56:56.861Z,6.39
2019-05-03T01:59:19.157Z,6.52
2019-05-03T02:02:09.858Z,6.89
2019-05-03T02:04:45.369Z,7.16
2019-05-03T02:07:16.493Z,7.45
2019-05-03T02:09:48.241Z,7.59
2019-05-03T02:12:22.054Z,7.71
2019-05-03T02:14:53.348Z,7.85
2019-05-03T02:17:25.119Z,7.83
2019-05-03T02:19:56.457Z,7.76
2019-05-03T02:22:27.306Z,7.61
2019-05-03T02:24:58.642Z,7.61
2019-05-03T02:27:29.986Z,7.50
2019-05-03T02:30:02.972Z,7.45
2019-05-03T02:32:34.316Z,7.52
2019-05-03T02:35:07.429Z,7.57
2019-05-03T02:37:40.284Z,7.59
2019-05-03T02:40:13.029Z,7.61
2019-05-03T02:42:46.976Z,7.66
2019-05-03T02:45:25.854Z,7.73
2019-05-03T02:48:05.979Z,7.72
2019-05-03T02:50:37.606Z,7.70
2019-05-03T02:53:09.137Z,7.79
2019-05-03T02:55:39.814Z,7.83
2019-05-03T02:58:10.444Z,7.76
2019-05-03T03:01:02.174Z,7.80
2019-05-03T03:03:36.251Z,7.84
2019-05-03T03:06:08.203Z,7.93
2019-05-03T03:08:41.170Z,7.94
2019-05-03T03:11:15.405Z,7.97
2019-05-03T03:13:48.007Z,8.04
2019-05-03T03:16:20.838Z,8.03
2019-05-03T03:18:55.958Z,8.04
2019-05-03T03:21:36.113Z,8.07
2019-05-03T03:24:18.458Z,8.14
2019-05-03T03:26:52.069Z,8.18
2019-05-03T03:29:27.483Z,8.24
2019-05-03T03:32:20.950Z,8.27
2019-05-03T03:35:20.778Z,8.38
2019-05-03T03:37:49.260Z,8.48
2019-05-03T03:40:21.235Z,8.59
2019-05-03T03:42:55.694Z,8.62
2019-05-03T03:45:26.172Z,8.65
2019-05-03T03:47:58.286Z,8.69
2019-05-03T03:50:32.420Z,8.74
2019-05-03T03:53:06.863Z,8.78
2019-05-03T03:55:40.497Z,8.79
2019-05-03T03:58:15.980Z,8.84
2019-05-03T04:00:46.449Z,8.91
2019-05-03T04:03:18.088Z,8.94
2019-05-03T04:05:49.571Z,8.99
2019-05-03T04:08:20.598Z,8.96
2019-05-03T04:10:52.173Z,8.99
2019-05-03T04:13:25.524Z,9.02
2019-05-03T04:16:07.754Z,9.09
2019-05-03T04:18:58.182Z,9.13
2019-05-03T04:21:29.918Z,9.16
2019-05-03T04:24:01.582Z,9.26
2019-05-03T04:26:32.727Z,9.20
2019-05-03T04:29:05.498Z,9.20
2019-05-03T04:31:37.254Z,9.22
2019-05-03T04:34:08.864Z,9.21
2019-05-03T04:36:40.419Z,9.26
2019-05-03T04:39:17.050Z,9.23
2019-05-03T04:41:45.465Z,9.21
2019-05-03T04:44:16.167Z,9.23
2019-05-03T04:46:46.938Z,9.30
2019-05-03T04:49:18.374Z,9.33
2019-05-03T04:51:49.462Z,9.43
2019-05-03T04:54:25.825Z,9.50
2019-05-03T04:56:57.539Z,9.58
2019-05-03T04:59:29.074Z,9.65
2019-05-03T05:01:59.710Z,9.70
2019-05-03T05:04:30.236Z,9.63
2019-05-03T05:07:01.999Z,9.55
2019-05-03T05:09:34.956Z,9.55
2019-05-03T05:12:06.545Z,9.52
2019-05-03T05:14:40.514Z,9.53
2019-05-03T05:17:12.881Z,9.55
2019-05-03T05:20:05.574Z,9.54
2019-05-03T05:22:37.015Z,9.56
2019-05-03T05:25:12.191Z,9.56
2019-05-03T05:28:01.501Z,9.63
2019-05-03T05:30:35.176Z,9.57
2019-05-03T05:33:08.006Z,9.55
2019-05-03T05:35:38.643Z,9.47
2019-05-03T05:38:09.974Z,9.37
2019-05-03T05:40:41.458Z,9.34
2019-05-03T05:43:12.670Z,9.26
2019-05-03T05:45:44.909Z,9.25
2019-05-03T05:48:20.548Z,9.17
2019-05-03T05:50:52.258Z,9.19
2019-05-03T05:53:25.408Z,9.24
2019-05-03T05:56:15.758Z,9.10
2019-05-03T05:58:55.366Z,9.09
2019-05-03T06:01:30.188Z,8.96
2019-05-03T06:04:00.864Z,8.99
2019-05-03T06:06:50.494Z,8.90
2019-05-03T06:09:36.467Z,8.87
2019-05-03T06:12:15.218Z,8.91
2019-05-03T06:14:50.655Z,8.89
2019-05-03T06:17:34.721Z,8.91
2019-05-03T06:20:15.678Z,8.87
2019-05-03T06:22:56.431Z,8.77
2019-05-03T06:25:37.162Z,8.81
2019-05-03T06:31:00.327Z,8.73
2019-05-03T06:33:32.140Z,8.71
2019-05-03T06:36:04.972Z,8.73
2019-05-03T06:38:38.744Z,8.72
2019-05-03T06:41:09.598Z,8.68
2019-05-03T06:43:45.106Z,8.61
2019-05-03T06:46:15.803Z,8.69
2019-05-03T06:48:45.494Z,8.67
2019-05-03T06:51:20.030Z,8.67
2019-05-03T06:53:50.659Z,8.67
2019-05-03T06:56:25.025Z,8.71
2019-05-03T06:58:58.720Z,8.74
2019-05-03T07:01:42.117Z,8.84
2019-05-03T07:04:32.468Z,8.96
2019-05-03T07:07:17.988Z,9.10
2019-05-03T07:09:56.838Z,9.16
2019-05-03T07:12:29.848Z,9.07
2019-05-03T07:15:02.746Z,9.10
2019-05-03T07:17:37.257Z,9.03
2019-05-03T07:20:10.966Z,9.10
2019-05-03T07:22:44.469Z,9.04
2019-05-03T07:25:16.835Z,8.93
2019-05-03T07:27:50.201Z,8.91
2019-05-03T07:30:21.986Z,8.98
2019-05-03T07:32:59.027Z,8.93
2019-05-03T07:35:32.778Z,8.80
2019-05-03T07:38:05.444Z,8.66
2019-05-03T07:40:36.225Z,8.70
2019-05-03T07:43:07.258Z,8.71
2019-05-03T07:45:40.688Z,8.77
2019-05-03T07:48:12.123Z,8.85
2019-05-03T07:50:44.750Z,8.87
2019-05-03T07:53:15.597Z,8.99
2019-05-03T07:56:05.332Z,9.16
2019-05-03T07:58:37.879Z,9.33
2019-05-03T08:01:15.015Z,9.38
2019-05-03T08:03:46.359Z,9.39
2019-05-03T08:06:17.437Z,9.49
2019-05-03T08:08:48.623Z,9.64
2019-05-03T08:11:20.363Z,9.77
2019-05-03T08:13:51.883Z,9.82
2019-05-03T08:16:25.073Z,9.78
2019-05-03T08:18:56.027Z,9.70
2019-05-03T08:21:38.775Z,9.79
2019-05-03T08:24:08.659Z,10.08
2019-05-03T08:26:39.583Z,10.18
2019-05-03T08:32:10.984Z,10.30
2019-05-03T08:34:47.553Z,10.42
2019-05-03T08:37:28.399Z,10.52
2019-05-03T08:39:59.355Z,10.77
2019-05-03T08:42:30.423Z,11.12
2019-05-03T08:45:01.366Z,11.41
2019-05-03T08:47:34.390Z,11.43
2019-05-03T08:50:06.404Z,11.77
2019-05-03T08:52:37.226Z,12.38
2019-05-03T08:55:08.993Z,12.43
2019-05-03T08:57:39.964Z,12.34
2019-05-03T09:00:15.918Z,12.92
2019-05-03T09:02:47.443Z,13.63
2019-05-03T09:05:19.320Z,13.53
2019-05-03T09:07:50.849Z,13.78
2019-05-03T09:10:27.474Z,14.53
2019-05-03T09:13:10.485Z,14.67
2019-05-03T09:15:42.078Z,14.50
2019-05-03T09:18:16.756Z,15.11
2019-05-03T09:20:45.823Z,15.70
2019-05-03T09:23:17.404Z,15.37
2019-05-03T09:25:48.296Z,15.05
2019-05-03T09:28:19.354Z,15.09
2019-05-03T09:30:50.437Z,14.91
2019-05-03T09:33:21.464Z,14.54
2019-05-03T09:35:52.372Z,15.36
2019-05-03T09:38:25.497Z,15.32
2019-05-03T09:41:00.234Z,15.04
2019-05-03T09:43:32.331Z,14.34
2019-05-03T09:46:05.019Z,14.93
2019-05-03T09:48:36.059Z,17.64
2019-05-03T09:51:08.196Z,18.01
2019-05-03T09:53:49.229Z,18.45
2019-05-03T09:56:46.026Z,19.43
2019-05-03T09:59:12.161Z,19.03
2019-05-03T10:01:45.451Z,19.52
2019-05-03T10:04:17.984Z,18.20
2019-05-03T10:06:48.863Z,17.51
2019-05-03T10:09:20.033Z,18.92
2019-05-03T10:11:51.732Z,20.39
2019-05-03T10:14:22.843Z,20.95
2019-05-03T10:17:08.898Z,20.27
2019-05-03T10:19:40.453Z,18.96
2019-05-03T10:22:11.453Z,18.50
2019-05-03T10:24:42.366Z,18.27
2019-05-03T10:27:15.113Z,18.77
2019-05-03T10:29:45.679Z,17.37
2019-05-03T10:32:27.313Z,16.83
2019-05-03T10:35:02.186Z,16.10
2019-05-03T10:37:35.867Z,15.77
2019-05-03T10:40:08.284Z,14.86
2019-05-03T10:42:39.193Z,14.09
2019-05-03T10:45:10.464Z,13.23
2019-05-03T10:47:41.443Z,12.62
2019-05-03T10:50:12.410Z,12.58
2019-05-03T10:55:21.816Z,12.67
2019-05-03T10:58:09.952Z,12.49
2019-05-03T11:00:49.611Z,12.56
2019-05-03T11:03:16.208Z,12.62
2019-05-03T11:05:47.170Z,12.95
2019-05-03T11:08:19.086Z,14.16
2019-05-03T11:10:50.281Z,14.81
2019-05-03T11:13:21.197Z,15.44
2019-05-03T11:15:52.222Z,15.91
2019-05-03T11:18:25.230Z,16.04
2019-05-03T11:20:56.633Z,16.01
2019-05-03T11:23:27.648Z,15.66
2019-05-03T11:25:59.517Z,15.61
2019-05-03T11:28:31.207Z,14.86
2019-05-03T11:31:24.826Z,14.49
2019-05-03T11:33:59.719Z,14.84
2019-05-03T11:36:42.331Z,14.71
2019-05-03T11:39:14.476Z,14.95
2019-05-03T11:41:48.648Z,15.01
2019-05-03T11:44:38.168Z,15.11
2019-05-03T11:47:09.766Z,14.51
2019-05-03T11:49:40.658Z,14.34
2019-05-03T11:52:12.488Z,14.33
2019-05-03T11:54:45.263Z,13.89
2019-05-03T11:57:26.785Z,13.89
2019-05-03T11:59:58.780Z,13.76
2019-05-03T12:02:49.786Z,13.16
2019-05-03T12:05:25.020Z,12.78
2019-05-03T12:07:56.813Z,13.04
2019-05-03T12:10:48.459Z,13.31
2019-05-03T12:13:08.890Z,13.19
2019-05-03T12:15:39.732Z,13.56
2019-05-03T12:18:11.362Z,13.81
2019-05-03T12:20:44.289Z,13.58
2019-05-03T12:23:16.814Z,13.80
2019-05-03T12:25:49.682Z,13.39
2019-05-03T12:28:20.855Z,13.17
2019-05-03T12:30:51.489Z,13.08
2019-05-03T12:33:25.821Z,13.01
2019-05-03T12:35:56.279Z,12.62
2019-05-03T12:38:27.482Z,12.65
2019-05-03T12:40:58.554Z,12.77
2019-05-03T12:43:29.230Z,12.74
2019-05-03T12:46:00.762Z,12.72
2019-05-03T12:48:31.471Z,12.90
2019-05-03T12:51:02.568Z,13.20
2019-05-03T12:53:35.353Z,13.08
2019-05-03T12:56:11.164Z,13.18
2019-05-03T12:58:58.141Z,13.27
2019-05-03T13:01:48.084Z,13.44
2019-05-03T13:04:24.954Z,13.56
2019-05-03T13:07:05.325Z,14.36
2019-05-03T13:09:35.808Z,14.56
2019-05-03T13:12:09.569Z,14.71
2019-05-03T13:14:40.130Z,14.68
2019-05-03T13:17:16.223Z,14.24
2019-05-03T13:19:46.909Z,13.94
2019-05-03T13:22:18.479Z,13.40
2019-05-03T13:27:39.486Z,13.29
2019-05-03T13:30:15.786Z,13.69
2019-05-03T13:32:46.659Z,14.01
2019-05-03T13:35:17.633Z,14.52
2019-05-03T13:37:49.723Z,14.34
2019-05-03T13:40:20.795Z,14.37
2019-05-03T13:43:01.715Z,13.96
2019-05-03T13:45:26.694Z,13.56
2019-05-03T13:47:58.092Z,13.41
2019-05-03T13:50:31.491Z,13.13
2019-05-03T13:53:04.849Z,13.11
2019-05-03T13:55:35.858Z,13.29
2019-05-03T13:58:07.106Z,13.60
2019-05-03T14:00:38.102Z,13.62
2019-05-03T14:03:12.426Z,13.43
2019-05-03T14:05:44.591Z,13.32
2019-05-03T14:08:20.122Z,13.55
2019-05-03T14:10:55.983Z,13.62
2019-05-03T14:13:35.983Z,13.44
2019-05-03T14:16:08.641Z,13.05
2019-05-03T14:18:41.405Z,12.80
2019-05-03T14:21:20.704Z,13.23
2019-05-03T14:24:15.629Z,13.26
2019-05-03T14:26:46.387Z,13.45
2019-05-03T14:29:18.524Z,13.54
2019-05-03T14:31:50.800Z,13.10
2019-05-03T14:34:21.557Z,12.75
2019-05-03T14:36:55.470Z,12.79
2019-05-03T14:39:27.218Z,12.79
2019-05-03T14:42:01.410Z,13.31
2019-05-03T14:44:32.292Z,13.06
2019-05-03T14:47:05.737Z,13.01
2019-05-03T14:49:39.026Z,12.77
2019-05-03T14:52:09.836Z,12.57
2019-05-03T14:54:42.777Z,12.52
2019-05-03T14:57:34.990Z,12.53
2019-05-03T15:00:27.276Z,12.58
2019-05-03T15:03:07.647Z,13.20
2019-05-03T15:05:46.076Z,13.10
2019-05-03T15:08:17.764Z,12.63
2019-05-03T15:10:48.893Z,12.57
2019-05-03T15:13:20.281Z,12.45
2019-05-03T15:15:50.924Z,12.49
2019-05-03T15:18:21.740Z,12.47
2019-05-03T15:20:52.183Z,12.36
2019-05-03T15:23:25.455Z,12.37
2019-05-03T15:25:55.971Z,12.30
2019-05-03T15:28:27.628Z,12.26
2019-05-03T15:30:59.522Z,12.30
2019-05-03T15:33:30.171Z,12.29
2019-05-03T15:36:06.785Z,12.21
2019-05-03T15:38:38.676Z,12.27
2019-05-03T15:41:10.486Z,12.31
2019-05-03T15:43:54.755Z,12.48
2019-05-03T15:46:45.142Z,12.65
2019-05-03T15:49:19.256Z,12.54
2019-05-03T15:51:50.711Z,12.65
2019-05-03T15:54:24.578Z,12.51
2019-05-03T15:56:56.784Z,12.32
2019-05-03T15:59:27.643Z,12.35
2019-05-03T16:01:58.331Z,12.20
2019-05-03T16:04:32.575Z,12.06
2019-05-03T16:07:06.159Z,11.99
2019-05-03T16:09:39.925Z,12.12
2019-05-03T16:12:11.723Z,12.02
2019-05-03T16:14:44.571Z,11.94
2019-05-03T16:17:17.475Z,11.72
2019-05-03T16:19:53.051Z,11.65
2019-05-03T16:22:25.047Z,11.66
2019-05-03T16:24:59.511Z,11.55
2019-05-03T16:27:52.551Z,11.48
2019-05-03T16:30:32.253Z,11.33
2019-05-03T16:33:04.718Z,11.26
2019-05-03T16:35:37.776Z,11.29
2019-05-03T16:38:07.923Z,11.20
2019-05-03T16:40:38.738Z,11.13
2019-05-03T16:43:10.936Z,11.10
2019-05-03T16:45:44.452Z,11.03
2019-05-03T16:48:18.151Z,11.07
2019-05-03T16:50:53.323Z,11.05
2019-05-03T16:53:27.289Z,11.03
2019-05-03T16:55:58.198Z,10.97
2019-05-03T16:58:30.773Z,10.99
2019-05-03T17:01:05.855Z,10.92
2019-05-03T17:03:47.337Z,10.84
2019-05-03T17:06:26.855Z,10.80
2019-05-03T17:09:19.640Z,10.73
2019-05-03T17:12:14.964Z,10.61
2019-05-03T17:14:49.568Z,10.60
2019-05-03T17:17:45.111Z,10.54
2019-05-03T17:20:21.392Z,10.54
2019-05-03T17:22:55.396Z,10.53
2019-05-03T17:25:26.587Z,10.47
2019-05-03T17:28:00.116Z,10.44
2019-05-03T17:30:37.317Z,10.43
2019-05-03T17:33:10.284Z,10.38
2019-05-03T17:35:45.317Z,10.33
2019-05-03T17:38:19.891Z,10.28
2019-05-03T17:41:09.860Z,10.21
2019-05-03T17:43:51.465Z,10.14
2019-05-03T17:46:28.640Z,10.00
2019-05-03T17:49:05.417Z,9.89
2019-05-03T17:51:46.297Z,9.82
2019-05-03T17:54:42.260Z,9.75
2019-05-03T17:57:24.363Z,9.69
2019-05-03T18:00:10.437Z,9.57
2019-05-03T18:02:46.997Z,9.52
2019-05-03T18:05:39.348Z,9.45
2019-05-03T18:08:26.188Z,9.44
2019-05-03T18:11:08.425Z,9.25
2019-05-03T18:13:40.244Z,9.13
2019-05-03T18:16:11.599Z,9.07
2019-05-03T18:18:42.648Z,8.92
2019-05-03T18:21:20.928Z,8.89
2019-05-03T18:24:01.209Z,8.78
2019-05-03T18:26:35.494Z,8.71
2019-05-03T18:29:07.035Z,8.67
2019-05-03T18:31:39.611Z,8.68
2019-05-03T18:34:21.557Z,8.70
2019-05-03T18:36:50.551Z,8.72
2019-05-03T18:39:25.246Z,8.71
2019-05-03T18:41:56.602Z,8.69
2019-05-03T18:44:55.110Z,8.63
2019-05-03T18:47:26.578Z,8.62
2019-05-03T18:50:00.913Z,8.52
2019-05-03T18:52:37.258Z,8.54
2019-05-03T18:55:09.509Z,8.48
2019-05-03T18:57:42.243Z,8.55
2019-05-03T19:00:15.323Z,8.49
2019-05-03T19:02:48.639Z,8.43
2019-05-03T19:05:27.901Z,8.37
2019-05-03T19:08:21.695Z,8.32
2019-05-03T19:11:08.624Z,8.26
2019-05-03T19:13:48.286Z,8.23
2019-05-03T19:16:45.557Z,8.11
2019-05-03T19:19:24.652Z,7.86
2019-05-03T19:21:56.100Z,7.73
2019-05-03T19:24:30.977Z,7.54
2019-05-03T19:27:17.282Z,7.30
2019-05-03T19:29:55.473Z,7.11
2019-05-03T19:32:28.362Z,7.02
2019-05-03T19:35:00.129Z,6.86
2019-05-03T19:37:35.590Z,6.81
2019-05-03T19:40:23.209Z,6.63
2019-05-03T19:42:55.759Z,6.49
2019-05-03T19:45:31.123Z,6.36
2019-05-03T19:48:06.226Z,6.35
2019-05-03T19:50:41.911Z,6.34
2019-05-03T19:53:37.843Z,6.27
2019-05-03T19:56:11.767Z,6.26
2019-05-03T19:58:46.772Z,6.24
2019-05-03T20:01:43.202Z,6.15
2019-05-03T20:04:34.389Z,6.04
2019-05-03T20:07:20.738Z,5.89
2019-05-03T20:09:54.386Z,5.76
2019-05-03T20:12:38.118Z,5.72
2019-05-03T20:15:14.735Z,5.65
2019-05-03T20:17:56.673Z,5.65
2019-05-03T20:20:20.172Z,5.51
2019-05-03T20:22:59.079Z,5.39
2019-05-03T20:25:35.566Z,5.24
2019-05-03T20:28:11.028Z,5.05
2019-05-03T20:30:45.285Z,4.97
2019-05-03T20:33:24.208Z,4.95
2019-05-03T20:35:56.283Z,4.96
2019-05-03T20:38:27.311Z,4.89
2019-05-03T20:41:02.281Z,4.87
2019-05-03T20:43:54.920Z,4.80
2019-05-03T20:46:39.328Z,4.78
2019-05-03T20:49:17.791Z,4.79
2019-05-03T20:51:54.417Z,4.91
2019-05-03T20:54:27.279Z,4.96
2019-05-03T20:57:08.461Z,4.96
2019-05-03T20:59:45.325Z,5.11
2019-05-03T21:02:15.321Z,5.12
2019-05-03T21:04:51.731Z,5.12
2019-05-03T21:07:26.313Z,5.15
2019-05-03T21:09:57.320Z,5.15
2019-05-03T21:12:31.528Z,4.94
2019-05-03T21:15:05.357Z,4.90
2019-05-03T21:17:45.060Z,4.98
2019-05-03T21:20:36.224Z,4.99
2019-05-03T21:23:09.479Z,5.05
2019-05-03T21:26:03.632Z,5.04
2019-05-03T21:28:18.978Z,5.18
2019-05-03T21:30:50.971Z,5.14
2019-05-03T21:33:23.232Z,5.24
2019-05-03T21:35:55.663Z,5.21
2019-05-03T21:38:26.459Z,5.22
2019-05-03T21:40:57.681Z,5.18
2019-05-03T21:43:29.148Z,5.06
2019-05-03T21:46:08.746Z,4.90
2019-05-03T21:48:58.491Z,5.08
2019-05-03T21:51:29.862Z,4.98
2019-05-03T21:54:01.092Z,5.00
2019-05-03T21:56:32.544Z,4.95
2019-05-03T21:59:05.384Z,4.93
2019-05-03T22:01:39.129Z,5.00
2019-05-03T22:04:10.991Z,5.01
2019-05-03T22:06:45.505Z,4.85
2019-05-03T22:09:17.173Z,4.87
2019-05-03T22:11:47.769Z,4.81
2019-05-03T22:14:25.426Z,4.80
2019-05-03T22:17:15.091Z,4.77
2019-05-03T22:19:48.371Z,4.63
2019-05-03T22:22:38.422Z,4.59
2019-05-03T22:25:10.197Z,4.54
2019-05-03T22:27:43.030Z,4.53
2019-05-03T22:30:15.302Z,4.56
2019-05-03T22:32:46.072Z,4.47
2019-05-03T22:35:17.683Z,4.53
2019-05-03T22:37:49.647Z,4.51
2019-05-03T22:40:20.882Z,4.46
2019-05-03T22:42:51.829Z,4.48
2019-05-03T22:45:22.417Z,4.39
2019-05-03T22:47:54.985Z,4.29
2019-05-03T22:50:25.800Z,4.33
2019-05-03T22:52:57.005Z,4.28
2019-05-03T22:55:28.495Z,4.24
2019-05-03T22:58:00.072Z,4.16
2019-05-03T23:00:31.826Z,4.12
2019-05-03T23:03:03.572Z,4.12
2019-05-03T23:05:37.314Z,4.11
2019-05-03T23:08:08.775Z,4.10
2019-05-03T23:10:39.734Z,4.10
2019-05-03T23:13:11.289Z,4.01
2019-05-03T23:15:42.891Z,4.13
2019-05-03T23:18:14.272Z,4.08
2019-05-03T23:20:52.779Z,4.06
2019-05-03T23:23:43.070Z,3.99
2019-05-03T23:26:14.824Z,3.83
2019-05-03T23:28:47.505Z,3.80
2019-05-03T23:31:18.851Z,3.77
2019-05-03T23:33:50.428Z,3.78
2019-05-03T23:36:32.852Z,3.90
2019-05-03T23:38:54.778Z,3.91
2019-05-03T23:41:25.741Z,3.87
2019-05-03T23:43:56.860Z,3.89
2019-05-03T23:46:34.800Z,3.91
2019-05-03T23:49:06.707Z,4.00
2019-05-03T23:51:56.290Z,3.95
2019-05-03T23:54:28.424Z,3.85
2019-05-03T23:56:59.349Z,3.72
2019-05-03T23:59:30.689Z,3.77
